createdAt,value
2019-01-06T00:04:39.238Z,4.43
2019-01-06T00:09:50.406Z,3.80
2019-01-06T00:14:45.080Z,2.13
2019-01-06T00:19:47.415Z,6.07
2019-01-06T00:24:49.298Z,2.57
2019-01-06T00:29:51.260Z,3.70
2019-01-06T00:34:53.377Z,3.37
2019-01-06T00:39:55.601Z,2.23
2019-01-06T00:45:14.349Z,3.17
2019-01-06T00:50:23.940Z,3.20
2019-01-06T00:55:33.723Z,4.20
2019-01-06T01:00:40.239Z,2.87
2019-01-06T01:05:46.965Z,3.27
2019-01-06T01:11:01.993Z,3.33
2019-01-06T01:16:05.822Z,3.67
2019-01-06T01:21:21.704Z,3.67
2019-01-06T01:26:31.446Z,1.57
2019-01-06T01:31:33.746Z,4.90
2019-01-06T01:36:37.328Z,2.70
2019-01-06T01:41:43.716Z,4.07
2019-01-06T01:46:47.327Z,3.30
2019-01-06T01:52:05.866Z,4.87
2019-01-06T01:57:08.042Z,1.43
2019-01-06T02:02:14.318Z,1.87
2019-01-06T02:07:21.104Z,1.10
2019-01-06T02:12:24.610Z,2.80
2019-01-06T02:17:37.104Z,1.40
2019-01-06T02:22:40.646Z,3.60
2019-01-06T02:27:50.269Z,2.10
2019-01-06T02:32:59.608Z,0.90
2019-01-06T02:38:02.902Z,2.60
2019-01-06T02:43:24.458Z,1.47
2019-01-06T02:48:37.029Z,1.43
2019-01-06T02:53:40.602Z,1.40
2019-01-06T02:58:42.549Z,2.40
2019-01-06T03:03:44.580Z,1.83
2019-01-06T03:09:06.027Z,6.07
2019-01-06T03:14:15.074Z,2.03
2019-01-06T03:19:21.369Z,2.80
2019-01-06T03:24:30.960Z,1.70
2019-01-06T03:29:37.280Z,2.27
2019-01-06T03:34:41.427Z,1.27
2019-01-06T03:39:51.206Z,2.53
2019-01-06T03:44:57.717Z,3.37
2019-01-06T03:49:59.534Z,1.83
2019-01-06T03:55:01.579Z,4.37
2019-01-06T04:00:20.137Z,2.17
2019-01-06T04:05:22.508Z,3.53
2019-01-06T04:10:24.750Z,2.77
2019-01-06T04:15:34.265Z,1.20
2019-01-06T04:20:43.804Z,1.53
2019-01-06T04:25:51.875Z,3.57
2019-01-06T04:30:58.193Z,1.40
2019-01-06T04:36:16.743Z,2.50
2019-01-06T04:41:25.954Z,2.17
2019-01-06T04:46:29.556Z,3.23
2019-01-06T04:51:49.297Z,4.50
2019-01-06T04:56:51.337Z,1.93
2019-01-06T05:02:06.279Z,3.83
2019-01-06T05:07:02.973Z,3.10
2019-01-06T05:12:12.637Z,4.37
2019-01-06T05:17:14.699Z,2.90
2019-01-06T05:22:15.766Z,2.30
2019-01-06T05:27:18.130Z,4.40
2019-01-06T05:32:29.550Z,3.23
2019-01-06T05:37:31.794Z,4.63
2019-01-06T05:42:35.389Z,4.93
2019-01-06T05:47:37.586Z,6.50
2019-01-06T05:52:37.331Z,8.00
2019-01-06T05:57:45.440Z,7.57
2019-01-06T06:02:51.967Z,5.37
2019-01-06T06:08:07.882Z,5.60
2019-01-06T06:13:14.363Z,7.00
2019-01-06T06:18:16.235Z,7.53
2019-01-06T06:23:18.488Z,10.53
2019-01-06T06:28:21.978Z,7.40
2019-01-06T06:33:45.872Z,8.37
2019-01-06T06:39:00.485Z,9.53
2019-01-06T06:43:57.987Z,7.47
2019-01-06T06:49:02.701Z,7.57
2019-01-06T06:54:05.019Z,6.63
2019-01-06T06:59:03.857Z,8.13
2019-01-06T07:04:05.856Z,7.93
2019-01-06T07:09:08.040Z,8.73
2019-01-06T07:14:11.579Z,8.10
2019-01-06T07:19:13.848Z,8.07
2019-01-06T07:24:16.199Z,8.67
2019-01-06T07:29:17.377Z,9.30
2019-01-06T07:34:20.929Z,9.90
2019-01-06T07:39:33.813Z,7.20
2019-01-06T07:44:40.433Z,8.30
2019-01-06T07:49:43.031Z,10.53
2019-01-06T07:54:52.423Z,9.77
2019-01-06T08:00:02.046Z,10.50
2019-01-06T08:05:05.581Z,9.60
2019-01-06T08:10:28.613Z,9.70
2019-01-06T08:15:30.952Z,10.30
2019-01-06T08:20:49.619Z,7.87
2019-01-06T08:25:53.375Z,11.83
2019-01-06T08:30:59.586Z,7.83
2019-01-06T08:36:15.311Z,7.63
2019-01-06T08:41:25.118Z,8.03
2019-01-06T08:46:27.139Z,8.97
2019-01-06T08:51:33.847Z,9.63
2019-01-06T08:56:49.629Z,8.47
2019-01-06T09:01:51.790Z,7.23
2019-01-06T09:06:55.366Z,7.40
2019-01-06T09:12:01.889Z,6.20
2019-01-06T09:17:11.436Z,6.77
2019-01-06T09:22:20.887Z,7.10
2019-01-06T09:27:36.685Z,7.77
2019-01-06T09:32:42.747Z,6.53
2019-01-06T09:37:55.979Z,6.57
2019-01-06T09:43:08.411Z,6.50
2019-01-06T09:48:30.269Z,7.57
2019-01-06T09:53:42.584Z,3.30
2019-01-06T09:58:50.329Z,5.20
2019-01-06T10:03:55.225Z,4.50
2019-01-06T10:09:15.042Z,4.23
2019-01-06T10:14:18.668Z,7.93
2019-01-06T10:19:15.033Z,2.73
2019-01-06T10:24:27.885Z,2.43
2019-01-06T10:29:23.041Z,2.33
2019-01-06T10:34:27.567Z,3.57
2019-01-06T10:39:31.187Z,4.10
2019-01-06T10:44:40.865Z,3.20
2019-01-06T10:49:42.881Z,2.33
2019-01-06T10:54:45.111Z,2.27
2019-01-06T10:59:51.480Z,3.20
2019-01-06T11:04:53.544Z,3.93
2019-01-06T11:09:48.668Z,2.77
2019-01-06T11:15:04.321Z,2.10
2019-01-06T11:20:07.797Z,2.20
2019-01-06T11:25:10.086Z,3.13
2019-01-06T11:30:12.343Z,2.40
2019-01-06T11:35:14.382Z,2.47
2019-01-06T11:40:16.260Z,2.67
2019-01-06T11:45:17.143Z,2.30
2019-01-06T11:50:19.109Z,2.97
2019-01-06T11:55:22.709Z,3.00
2019-01-06T12:00:18.201Z,2.43
2019-01-06T12:05:19.529Z,5.17
2019-01-06T12:10:35.498Z,2.20
2019-01-06T12:15:44.972Z,3.40
2019-01-06T12:20:57.500Z,3.43
2019-01-06T12:26:00.974Z,2.27
2019-01-06T12:31:03.951Z,3.30
2019-01-06T12:36:22.572Z,2.73
2019-01-06T12:41:29.085Z,2.57
2019-01-06T12:46:31.034Z,3.73
2019-01-06T12:51:34.047Z,4.17
2019-01-06T12:56:37.748Z,2.93
2019-01-06T13:01:39.819Z,5.40
2019-01-06T13:06:41.051Z,2.80
2019-01-06T13:11:53.785Z,4.10
2019-01-06T13:17:15.774Z,3.07
2019-01-06T13:22:22.266Z,2.87
2019-01-06T13:27:37.812Z,4.63
2019-01-06T13:32:46.435Z,3.17
2019-01-06T13:37:46.990Z,3.47
2019-01-06T13:42:56.847Z,3.40
2019-01-06T13:48:00.357Z,4.10
2019-01-06T13:53:18.814Z,5.80
2019-01-06T13:58:28.121Z,3.70
2019-01-06T14:03:37.601Z,5.20
2019-01-06T14:08:55.364Z,5.10
2019-01-06T14:13:54.528Z,7.07
2019-01-06T14:19:03.890Z,7.33
2019-01-06T14:24:10.530Z,4.10
2019-01-06T14:29:16.921Z,6.00
2019-01-06T14:34:17.675Z,6.63
2019-01-06T14:39:20.167Z,8.00
2019-01-06T14:44:22.218Z,4.97
2019-01-06T14:49:24.591Z,4.03
2019-01-06T14:54:26.959Z,9.57
2019-01-06T14:59:36.292Z,5.30
2019-01-06T15:04:55.404Z,4.90
2019-01-06T15:09:57.327Z,11.40
2019-01-06T15:14:59.655Z,4.27
2019-01-06T15:20:03.267Z,7.73
2019-01-06T15:25:15.933Z,6.83
2019-01-06T15:30:25.625Z,10.47
2019-01-06T15:35:47.192Z,10.53
2019-01-06T15:40:50.420Z,8.57
2019-01-06T15:45:51.825Z,10.10
2019-01-06T15:50:58.272Z,10.63
2019-01-06T15:56:01.863Z,4.10
2019-01-06T16:01:11.333Z,6.10
2019-01-06T16:06:13.645Z,5.70
2019-01-06T16:11:32.245Z,6.20
2019-01-06T16:16:42.940Z,3.90
2019-01-06T16:21:52.263Z,3.97
2019-01-06T16:27:14.040Z,2.70
2019-01-06T16:32:35.162Z,5.10
2019-01-06T16:37:37.449Z,3.93
2019-01-06T16:42:47.332Z,3.57
2019-01-06T16:48:10.303Z,5.57
2019-01-06T16:53:15.994Z,2.40
2019-01-06T16:58:14.926Z,4.83
2019-01-06T17:03:31.912Z,4.37
2019-01-06T17:08:34.012Z,5.07
2019-01-06T17:13:36.179Z,5.53
2019-01-06T17:18:39.199Z,7.87
2019-01-06T17:23:51.787Z,7.20
2019-01-06T17:29:13.581Z,13.50
2019-01-06T17:34:20.727Z,6.73
2019-01-06T17:39:27.730Z,5.50
2019-01-06T17:44:46.372Z,7.83
2019-01-06T17:49:56.008Z,7.90
2019-01-06T17:54:59.605Z,9.83
2019-01-06T18:00:12.224Z,7.43
2019-01-06T18:05:15.947Z,6.83
2019-01-06T18:10:22.556Z,7.10
2019-01-06T18:15:46.644Z,5.43
2019-01-06T18:21:08.135Z,9.37
2019-01-06T18:26:11.922Z,8.33
2019-01-06T18:31:17.770Z,10.37
2019-01-06T18:36:41.216Z,8.07
2019-01-06T18:41:56.946Z,8.40
2019-01-06T18:47:09.440Z,8.23
2019-01-06T18:52:23.747Z,7.50
2019-01-06T18:57:27.395Z,7.77
2019-01-06T19:02:48.947Z,10.70
2019-01-06T19:07:55.696Z,6.97
2019-01-06T19:13:02.431Z,8.03
2019-01-06T19:18:01.008Z,11.07
2019-01-06T19:23:18.088Z,10.30
2019-01-06T19:28:34.182Z,12.43
2019-01-06T19:33:40.892Z,10.37
2019-01-06T19:38:43.367Z,12.53
2019-01-06T19:43:45.704Z,15.77
2019-01-06T19:48:49.346Z,14.90
2019-01-06T19:53:52.944Z,8.53
2019-01-06T19:58:55.341Z,9.00
2019-01-06T20:03:58.944Z,12.23
2019-01-06T20:09:19.100Z,12.43
2019-01-06T20:14:24.206Z,11.30
2019-01-06T20:19:39.720Z,11.37
2019-01-06T20:24:47.089Z,7.80
2019-01-06T20:29:50.936Z,10.83
2019-01-06T20:34:54.623Z,10.70
2019-01-06T20:39:56.767Z,8.10
2019-01-06T20:45:12.485Z,11.83
2019-01-06T20:50:14.571Z,8.07
2019-01-06T20:55:17.224Z,9.13
2019-01-06T21:00:26.686Z,9.70
2019-01-06T21:05:27.576Z,10.30
2019-01-06T21:10:40.228Z,9.00
2019-01-06T21:15:53.017Z,10.60
2019-01-06T21:21:08.466Z,8.53
2019-01-06T21:26:11.096Z,9.00
2019-01-06T21:31:13.541Z,8.50
2019-01-06T21:36:17.490Z,12.07
2019-01-06T21:41:20.069Z,8.80
2019-01-06T21:46:22.576Z,8.80
2019-01-06T21:51:29.202Z,9.00
2019-01-06T21:56:39.730Z,7.83
2019-01-06T22:01:46.290Z,9.77
2019-01-06T22:06:56.838Z,8.63
2019-01-06T22:11:59.626Z,9.57
2019-01-06T22:17:02.999Z,10.80
2019-01-06T22:22:21.579Z,8.57
2019-01-06T22:27:37.131Z,13.63
2019-01-06T22:32:40.878Z,9.97
2019-01-06T22:38:02.664Z,14.33
2019-01-06T22:42:55.569Z,16.70
2019-01-06T22:47:59.512Z,14.93
2019-01-06T22:53:10.659Z,19.30
2019-01-06T22:58:12.922Z,19.27
2019-01-06T23:03:16.530Z,20.53
2019-01-06T23:08:17.950Z,18.20
2019-01-06T23:13:22.747Z,20.20
2019-01-06T23:18:35.213Z,19.77
2019-01-06T23:23:50.590Z,19.77
2019-01-06T23:28:54.172Z,20.13
2019-01-06T23:33:56.622Z,22.53
2019-01-06T23:39:07.605Z,21.10
2019-01-06T23:44:29.031Z,21.40
2019-01-06T23:49:33.850Z,23.20
2019-01-06T23:54:35.769Z,23.27
2019-01-06T23:59:39.384Z,23.10
